createdAt,value
2022-10-23T00:10:55.041Z,1019.73
2022-10-23T00:26:12.034Z,1019.7
2022-10-23T00:41:28.041Z,1019.87
2022-10-23T00:56:43.955Z,1019.79
2022-10-23T01:12:00.938Z,1019.57
2022-10-23T01:27:16.933Z,1019.49
2022-10-23T01:42:33.922Z,1019.44
2022-10-23T01:57:50.854Z,1019.14
2022-10-23T02:13:08.862Z,1019.14
2022-10-23T02:28:24.845Z,1019.08
2022-10-23T02:43:40.786Z,1018.82
2022-10-23T02:58:56.802Z,1018.93
2022-10-23T03:14:15.737Z,1018.71
2022-10-23T03:29:32.730Z,1018.7
2022-10-23T03:44:48.682Z,1018.55
2022-10-23T04:00:04.714Z,1018.57
2022-10-23T04:15:21.620Z,1018.63
2022-10-23T04:30:37.613Z,1018.8
2022-10-23T04:45:53.565Z,1018.91
2022-10-23T05:01:10.785Z,1018.82
2022-10-23T05:16:28.508Z,1018.69
2022-10-23T05:31:45.476Z,1018.64
2022-10-23T05:47:01.481Z,1018.8
2022-10-23T06:02:17.469Z,1018.85
2022-10-23T06:17:34.523Z,1018.88
2022-10-23T06:32:50.377Z,1018.75
2022-10-23T06:48:06.370Z,1018.75
2022-10-23T06:48:46.253Z,1018.75
2022-10-23T07:03:24.337Z,1018.53
2022-10-23T07:18:42.326Z,1018.52
2022-10-23T07:33:59.288Z,1018.57
2022-10-23T07:49:16.287Z,1018.43
2022-10-23T08:04:32.219Z,1018.61
2022-10-23T08:19:49.198Z,1018.58
2022-10-23T08:35:05.172Z,1018.5
2022-10-23T08:50:21.269Z,1018.61
2022-10-23T09:05:38.153Z,1018.55
2022-10-23T09:20:56.124Z,1018.49
2022-10-23T09:36:13.098Z,1018.76
2022-10-23T09:51:29.066Z,1018.73
2022-10-23T10:06:45.044Z,1018.69
2022-10-23T10:22:02.009Z,1018.89
2022-10-23T10:37:17.983Z,1018.8
2022-10-23T10:52:33.953Z,1018.51
2022-10-23T11:07:50.931Z,1018.31
2022-10-23T11:23:08.908Z,1017.92
2022-10-23T11:38:25.874Z,1017.81
2022-10-23T11:53:41.775Z,1017.59
2022-10-23T12:08:57.805Z,1017.07
2022-10-23T12:24:14.775Z,1016.78
2022-10-23T12:39:30.727Z,1016.6
2022-10-23T12:54:47.647Z,1016.36
2022-10-23T13:10:04.667Z,1016.17
2022-10-23T13:25:22.591Z,1015.94
2022-10-23T13:40:38.589Z,1015.55
2022-10-23T13:55:57.834Z,1015.58
2022-10-23T14:11:10.618Z,1015.5
2022-10-23T14:26:27.465Z,1015.38
2022-10-23T14:41:43.462Z,1015.49
2022-10-23T14:57:00.404Z,1015.43
2022-10-23T15:13:18.813Z,1015.66
2022-10-23T15:27:46.528Z,1015.69
2022-10-23T15:43:03.330Z,1015.76
2022-10-23T15:58:19.309Z,1015.59
2022-10-23T16:13:37.663Z,1015.65
2022-10-23T16:28:48.243Z,1015.64
2022-10-23T16:44:05.173Z,1015.73
2022-10-23T16:59:22.291Z,1016.23
2022-10-23T17:14:39.105Z,1016.34
2022-10-23T17:29:55.184Z,1016.71
2022-10-23T17:45:11.057Z,1016.93
2022-10-23T18:00:27.010Z,1017.06
2022-10-23T18:15:43.983Z,1017.7
2022-10-23T18:31:00.950Z,1017.95
2022-10-23T18:46:17.926Z,1017.86
2022-10-23T19:01:34.954Z,1017.67
2022-10-23T19:16:51.855Z,1017.74
2022-10-23T19:32:07.828Z,1018
2022-10-23T19:47:23.822Z,1017.89
2022-10-23T20:02:39.761Z,1017.4
2022-10-23T20:17:56.733Z,1017.26
2022-10-23T20:33:13.707Z,1016.96
2022-10-23T20:48:30.726Z,1017.16
2022-10-23T21:03:46.641Z,1017.37
2022-10-23T21:19:03.637Z,1017.26
2022-10-23T21:34:19.580Z,1017.31
2022-10-23T21:49:35.596Z,1017.15
2022-10-23T22:04:51.512Z,1016.95
2022-10-23T22:20:08.527Z,1016.92
2022-10-23T22:35:25.494Z,1016.78
2022-10-23T22:50:42.458Z,1016.81
2022-10-23T23:05:58.431Z,1016.5
2022-10-23T23:21:15.407Z,1016.49
2022-10-23T23:36:31.371Z,1016.6
2022-10-23T23:51:47.326Z,1016.82
